Time;durP1;ratioP1;P1;durP2;ratioP2;P2;SDS_P1;SDS_P2;PMS_P1;PMS_P2;Temp;Humidity;BMP_temperature;BMP_pressure;BME280_temperature;BME280_humidity;BME280_pressure;Samples;Min_cycle;Max_cycle;Signal;HPM_P1;HPM_P2
2021/08/13 00:01:24;;;;;;;8.90;6.20;;;;;;;24.53;66.65;98915.34;4962068;28;20042;-61
2021/08/13 00:03:49;;;;;;;12.05;6.88;;;;;;;24.77;66.13;98949.97;4969208;28;20034;-61
2021/08/13 00:06:14;;;;;;;11.98;6.90;;;;;;;24.75;65.70;98931.56;4977150;28;20131;-61
2021/08/13 00:08:40;;;;;;;10.68;6.95;;;;;;;24.67;65.50;98937.22;4977416;28;20043;-62
2021/08/13 00:11:05;;;;;;;10.98;6.63;;;;;;;24.64;66.77;98924.41;4972957;28;20509;-62
2021/08/13 00:13:31;;;;;;;9.57;7.03;;;;;;;24.61;67.90;98919.53;4975641;28;20050;-61
2021/08/13 00:15:56;;;;;;;9.70;6.25;;;;;;;24.36;66.63;98863.88;4992605;28;20481;-61
2021/08/13 00:18:22;;;;;;;11.93;6.75;;;;;;;24.65;67.15;98910.03;4976996;28;20030;-61
2021/08/13 00:20:47;;;;;;;9.88;7.28;;;;;;;24.63;66.01;98895.38;4978354;28;20066;-61
2021/08/13 00:23:13;;;;;;;11.18;6.53;;;;;;;24.42;64.55;98873.56;4980074;28;20445;-61
2021/08/13 00:25:38;;;;;;;11.43;6.57;;;;;;;24.82;63.26;98894.22;4975857;28;20042;-62
2021/08/13 00:28:04;;;;;;;9.77;6.15;;;;;;;24.53;63.74;98843.59;4980389;28;20034;-61
2021/08/13 00:30:29;;;;;;;9.80;6.75;;;;;;;24.69;64.50;98892.59;4982262;28;20029;-61
2021/08/13 00:32:55;;;;;;;8.82;6.28;;;;;;;24.69;63.83;98884.63;4975090;28;20039;-61
2021/08/13 00:35:20;;;;;;;9.98;6.63;;;;;;;24.40;63.89;98842.97;4982139;28;20038;-60
2021/08/13 00:37:45;;;;;;;8.82;6.30;;;;;;;24.64;65.19;98895.16;4977471;28;20062;-61
2021/08/13 00:40:11;;;;;;;8.27;6.13;;;;;;;24.62;65.95;98901.72;4982342;28;20061;-62
2021/08/13 00:42:37;;;;;;;9.38;6.10;;;;;;;24.52;66.64;98899.59;4985189;28;20033;-62
2021/08/13 00:45:04;;;;;;;9.77;6.30;;;;;;;24.21;66.96;98869.59;4980757;28;20034;-62
2021/08/13 00:47:30;;;;;;;11.52;6.40;;;;;;;24.49;66.70;98908.03;5000331;28;20072;-62
2021/08/13 00:49:55;;;;;;;8.73;6.28;;;;;;;24.46;67.12;98901.31;4979860;28;20023;-62
2021/08/13 00:52:21;;;;;;;7.97;6.07;;;;;;;24.51;67.07;98912.06;4993579;28;20114;-62
2021/08/13 00:54:46;;;;;;;10.43;6.60;;;;;;;24.44;66.70;98905.22;4976925;28;20030;-61
2021/08/13 00:57:11;;;;;;;9.00;6.43;;;;;;;24.38;67.02;98917.59;4983245;28;20058;-62
2021/08/13 00:59:40;;;;;;;10.88;6.45;;;;;;;24.17;67.00;98877.22;4981187;28;20030;-63
2021/08/13 01:02:06;;;;;;;9.77;6.07;;;;;;;24.56;65.33;98912.22;4994452;28;20018;-62
2021/08/13 01:04:31;;;;;;;9.90;6.28;;;;;;;24.57;66.62;98905.06;4981745;28;20045;-63
2021/08/13 01:06:56;;;;;;;12.38;6.80;;;;;;;24.52;66.63;98904.91;4980227;28;20661;-62
2021/08/13 01:09:22;;;;;;;11.93;6.80;;;;;;;24.34;66.85;98882.69;4994188;28;20136;-62
2021/08/13 01:12:32;;;;;;;9.15;5.97;;;;;;;24.54;66.74;98913.50;4975686;28;20043;-62
2021/08/13 01:15:06;;;;;;;11.93;6.70;;;;;;;24.57;67.00;98913.06;4919914;29;20043;-63
2021/08/13 01:17:56;;;;;;;9.35;6.38;;;;;;;24.52;67.50;98920.88;4958302;28;20061;-59
2021/08/13 01:20:40;;;;;;;9.40;6.55;;;;;;;24.58;66.88;98925.28;4993734;28;20473;-63
2021/08/13 01:23:19;;;;;;;10.27;6.65;;;;;;;24.31;67.44;98880.50;4978657;28;21341;-62
2021/08/13 01:25:53;;;;;;;9.45;6.03;;;;;;;24.56;68.00;98922.84;4976848;28;20045;-61
2021/08/13 01:28:32;;;;;;;9.90;6.50;;;;;;;24.20;67.92;98878.59;4979773;28;20434;-61
2021/08/13 01:31:00;;;;;;;10.65;6.82;;;;;;;24.40;67.89;98912.84;4979960;28;20680;-61
2021/08/13 01:33:26;;;;;;;8.68;6.22;;;;;;;24.45;67.91;98910.31;4971284;28;20481;-62
2021/08/13 01:35:52;;;;;;;8.30;6.28;;;;;;;24.43;67.62;98908.94;4982587;28;20026;-62
2021/08/13 01:38:22;;;;;;;7.63;5.95;;;;;;;24.45;68.03;98920.94;4974580;28;20141;-61
2021/08/13 01:40:49;;;;;;;8.73;6.18;;;;;;;24.45;67.54;98923.59;4977451;28;20081;-61
2021/08/13 01:43:16;;;;;;;9.88;6.38;;;;;;;24.40;67.24;98912.03;4975188;28;20033;-61
2021/08/13 01:45:42;;;;;;;9.32;5.93;;;;;;;24.43;67.58;98912.41;4979257;28;20834;-62
2021/08/13 01:48:08;;;;;;;10.93;6.15;;;;;;;24.27;67.90;98907.75;4981496;28;20121;-61
2021/08/13 01:50:33;;;;;;;8.65;5.93;;;;;;;24.19;68.35;98906.22;4974856;28;20031;-62
2021/08/13 01:53:00;;;;;;;9.63;6.15;;;;;;;24.27;68.17;98907.75;4979413;28;20080;-63
2021/08/13 01:55:26;;;;;;;9.50;6.30;;;;;;;24.23;68.17;98904.72;4980146;28;20298;-61
2021/08/13 01:57:52;;;;;;;10.57;6.90;;;;;;;24.25;68.49;98900.00;4978741;28;20042;-61
2021/08/13 02:00:22;;;;;;;10.00;6.40;;;;;;;24.24;68.44;98903.69;4980343;28;20096;-61
2021/08/13 02:02:48;;;;;;;10.55;6.13;;;;;;;24.05;68.79;98910.09;4976885;28;20038;-63
2021/08/13 02:05:17;;;;;;;9.52;6.05;;;;;;;23.88;68.46;98918.69;4982486;28;20110;-62
2021/08/13 02:07:43;;;;;;;11.48;6.80;;;;;;;23.81;68.58;98917.94;4980344;28;20038;-62
2021/08/13 02:10:11;;;;;;;8.05;6.07;;;;;;;23.87;69.58;98916.25;4974559;28;20034;-61
2021/08/13 02:12:36;;;;;;;8.80;6.38;;;;;;;23.79;70.02;98906.72;4981434;28;20038;-61
2021/08/13 02:15:05;;;;;;;10.52;6.38;;;;;;;23.79;69.92;98910.22;4972214;28;20038;-62
2021/08/13 02:17:32;;;;;;;10.93;6.90;;;;;;;23.82;69.76;98911.63;4998340;28;20037;-62
2021/08/13 02:20:04;;;;;;;8.15;6.22;;;;;;;23.73;69.50;98883.69;4979658;28;20050;-62
2021/08/13 02:22:29;;;;;;;9.52;6.40;;;;;;;23.95;69.90;98911.44;4994627;28;20089;-62
2021/08/13 02:24:55;;;;;;;9.25;6.50;;;;;;;23.77;69.82;98882.25;4979581;28;20482;-61
2021/08/13 02:27:21;;;;;;;10.50;7.03;;;;;;;23.85;69.52;98883.78;4983507;28;20046;-62
2021/08/13 02:29:46;;;;;;;9.98;6.80;;;;;;;23.86;69.79;98912.78;4976891;28;20468;-61
2021/08/13 02:32:12;;;;;;;9.93;6.80;;;;;;;23.56;70.61;98896.78;4980583;28;20049;-61
2021/08/13 02:34:38;;;;;;;10.40;6.30;;;;;;;23.61;70.75;98920.81;4983392;28;20439;-61
2021/08/13 02:37:20;;;;;;;9.43;6.22;;;;;;;23.55;71.90;98941.09;4981655;28;20049;-61
2021/08/13 02:39:51;;;;;;;8.45;6.35;;;;;;;23.50;71.75;98954.19;4982228;28;20034;-61
2021/08/13 02:42:21;;;;;;;10.00;6.00;;;;;;;23.62;69.44;98975.53;4996263;28;20061;-62
2021/08/13 02:44:50;;;;;;;8.98;6.25;;;;;;;23.64;68.37;98991.22;4976155;28;20037;-61
2021/08/13 02:47:16;;;;;;;7.78;5.40;;;;;;;23.71;69.15;98990.13;4981620;28;20516;-61
2021/08/13 02:49:48;;;;;;;8.60;5.88;;;;;;;23.61;69.51;98987.16;4979550;28;20118;-59
2021/08/13 02:52:14;;;;;;;10.77;6.13;;;;;;;23.41;69.38;98953.69;4976385;28;20531;-61
2021/08/13 02:54:40;;;;;;;9.40;6.15;;;;;;;23.73;68.91;99000.50;4970492;28;20073;-61
2021/08/13 02:57:06;;;;;;;8.52;6.18;;;;;;;23.50;68.90;98951.56;4981373;28;20132;-60
2021/08/13 02:59:34;;;;;;;9.98;5.90;;;;;;;23.72;68.44;98981.13;4977532;28;20034;-62
2021/08/13 03:02:00;;;;;;;9.20;5.80;;;;;;;23.84;68.13;98989.19;4994031;28;20038;-61
2021/08/13 03:04:28;;;;;;;10.57;6.30;;;;;;;23.86;69.02;98984.47;4981307;28;20089;-62
2021/08/13 03:06:54;;;;;;;7.60;5.57;;;;;;;23.84;67.91;98969.78;4992963;28;20484;-61
2021/08/13 03:09:20;;;;;;;9.43;5.97;;;;;;;23.75;68.31;98967.41;4979630;28;20031;-62
2021/08/13 03:11:47;;;;;;;8.00;5.60;;;;;;;23.78;69.32;98964.31;4975766;28;20803;-61
2021/08/13 03:14:13;;;;;;;11.60;5.85;;;;;;;23.68;69.27;98961.38;4981608;28;20034;-62
2021/08/13 03:16:39;;;;;;;9.52;5.90;;;;;;;23.69;69.98;98964.81;4964462;28;20035;-62
2021/08/13 03:19:05;;;;;;;8.50;6.05;;;;;;;23.59;69.68;98960.03;4964214;28;20030;-60
2021/08/13 03:21:31;;;;;;;9.73;5.53;;;;;;;23.65;69.02;98958.34;4981670;28;20034;-61
2021/08/13 03:23:57;;;;;;;9.77;5.97;;;;;;;23.59;69.31;98957.38;4970801;28;20038;-62
2021/08/13 03:26:25;;;;;;;8.93;5.57;;;;;;;23.66;68.61;98970.59;4960705;28;20034;-61
2021/08/13 03:28:50;;;;;;;11.30;5.95;;;;;;;23.74;68.66;98970.28;4977376;28;20675;-61
2021/08/13 03:31:44;;;;;;;8.60;5.30;;;;;;;23.52;68.60;98938.06;4981061;28;20034;-62
2021/08/13 03:34:10;;;;;;;8.27;5.75;;;;;;;23.31;71.06;98926.84;4978083;28;20080;-62
2021/08/13 03:36:37;;;;;;;10.63;5.85;;;;;;;23.39;72.27;98969.00;4980437;28;20401;-61
2021/08/13 03:39:07;;;;;;;9.23;6.00;;;;;;;23.17;70.52;98946.59;4999625;28;20034;-61
2021/08/13 03:41:33;;;;;;;10.05;6.20;;;;;;;23.33;69.20;98963.78;4991576;28;20030;-63
2021/08/13 03:43:58;;;;;;;9.07;5.35;;;;;;;23.35;68.38;98965.19;4985979;28;20034;-62
2021/08/13 03:46:23;;;;;;;10.50;5.53;;;;;;;23.45;68.84;98969.16;4974739;28;20390;-61
2021/08/13 03:48:49;;;;;;;8.65;5.50;;;;;;;23.31;68.89;98971.13;4985898;28;20030;-62
2021/08/13 03:51:15;;;;;;;8.57;5.82;;;;;;;23.32;67.84;98959.50;4980689;28;20038;-62
2021/08/13 03:53:40;;;;;;;8.45;5.70;;;;;;;23.44;67.72;98971.00;4985555;28;20026;-62
2021/08/13 03:56:05;;;;;;;9.82;5.53;;;;;;;23.49;66.71;98965.88;4983297;28;20034;-61
2021/08/13 03:58:31;;;;;;;9.02;4.85;;;;;;;23.50;66.62;98972.78;4977858;28;20109;-62
2021/08/13 04:00:56;;;;;;;7.35;5.22;;;;;;;23.54;66.88;98989.06;4985171;28;20626;-63
2021/08/13 04:03:22;;;;;;;9.13;5.78;;;;;;;23.52;68.18;98981.31;4975504;28;20031;-62
2021/08/13 04:05:47;;;;;;;8.25;5.47;;;;;;;23.18;67.40;98945.53;4973430;28;20114;-62
2021/08/13 04:08:12;;;;;;;9.75;5.50;;;;;;;23.39;67.94;98973.50;4971064;28;20030;-62
2021/08/13 04:10:38;;;;;;;9.15;5.80;;;;;;;23.32;68.57;98978.88;4982218;28;20026;-64
2021/08/13 04:13:03;;;;;;;8.85;5.47;;;;;;;23.22;70.04;98974.06;4983951;28;20108;-61
2021/08/13 04:15:29;;;;;;;8.82;6.15;;;;;;;23.17;70.30;98976.56;4976030;28;20034;-63
2021/08/13 04:17:55;;;;;;;9.23;6.00;;;;;;;23.14;70.72;98976.97;4973484;28;20031;-62
2021/08/13 04:20:20;;;;;;;9.43;5.82;;;;;;;23.17;70.40;98975.75;4977118;28;20134;-62
2021/08/13 04:22:46;;;;;;;9.77;5.40;;;;;;;23.08;70.30;98975.22;4978895;28;20041;-62
2021/08/13 04:25:11;;;;;;;9.65;5.72;;;;;;;23.06;70.85;98979.13;4978956;28;20030;-60
2021/08/13 04:27:36;;;;;;;8.10;5.93;;;;;;;23.08;71.59;98993.78;4984726;28;20075;-63
2021/08/13 04:30:02;;;;;;;8.85;5.60;;;;;;;23.01;71.69;98996.44;4984358;28;20045;-61
2021/08/13 04:32:28;;;;;;;8.32;5.43;;;;;;;22.76;73.10;98967.28;4980902;28;20030;-62
2021/08/13 04:34:53;;;;;;;7.95;5.45;;;;;;;22.81;72.38;99001.88;4984090;28;20042;-62
2021/08/13 04:37:18;;;;;;;9.65;5.63;;;;;;;22.84;71.67;99013.91;4980398;28;20354;-61
2021/08/13 04:39:44;;;;;;;12.70;6.10;;;;;;;22.77;71.35;99013.16;4985049;28;20038;-61
2021/08/13 04:42:09;;;;;;;9.93;5.50;;;;;;;22.75;71.90;99021.31;4981799;28;20050;-61
2021/08/13 04:44:34;;;;;;;9.55;5.60;;;;;;;22.80;72.28;99016.19;4981152;28;20034;-62
2021/08/13 04:47:00;;;;;;;8.77;5.35;;;;;;;22.69;72.69;99013.41;4980021;28;20105;-61
2021/08/13 04:49:26;;;;;;;9.57;5.68;;;;;;;22.77;73.24;99023.75;4970369;28;20558;-62
2021/08/13 04:51:51;;;;;;;8.57;5.38;;;;;;;22.64;73.19;99027.31;4971479;28;20042;-62
2021/08/13 04:54:17;;;;;;;8.07;5.50;;;;;;;22.60;72.83;99028.75;4974963;28;20759;-63
2021/08/13 04:56:43;;;;;;;11.38;5.80;;;;;;;22.48;73.98;99023.31;4971611;28;20043;-61
2021/08/13 04:59:09;;;;;;;8.68;6.20;;;;;;;22.52;73.39;99024.50;4988467;28;20074;-61
2021/08/13 05:01:35;;;;;;;11.25;6.43;;;;;;;22.29;74.05;98989.78;4983122;28;20516;-62
2021/08/13 05:04:00;;;;;;;9.20;5.40;;;;;;;22.51;73.70;99033.50;4970638;28;20035;-62
2021/08/13 05:06:26;;;;;;;9.27;5.25;;;;;;;22.50;73.19;99031.03;4961828;28;20385;-62
2021/08/13 05:08:52;;;;;;;9.82;5.45;;;;;;;22.24;73.32;98988.53;4980409;28;20047;-61
2021/08/13 05:11:17;;;;;;;8.38;5.22;;;;;;;22.45;73.17;99034.31;4971323;28;20840;-61
2021/08/13 05:13:43;;;;;;;9.05;5.18;;;;;;;22.51;72.22;99040.63;4976619;28;20488;-61
2021/08/13 05:16:09;;;;;;;10.15;5.07;;;;;;;22.50;72.28;99045.09;4968291;28;20033;-62
2021/08/13 05:18:34;;;;;;;9.18;5.10;;;;;;;22.17;71.94;99001.00;4977024;28;20035;-61
2021/08/13 05:21:00;;;;;;;9.40;5.43;;;;;;;22.50;70.95;99039.78;4989466;28;20058;-61
2021/08/13 05:23:25;;;;;;;9.73;5.53;;;;;;;22.57;71.05;99050.38;4979996;28;20034;-61
2021/08/13 05:25:51;;;;;;;9.35;5.18;;;;;;;22.52;70.91;99039.59;4978565;28;20038;-61
2021/08/13 05:28:16;;;;;;;9.07;5.97;;;;;;;22.50;71.43;99045.09;4979071;28;20038;-62
2021/08/13 05:30:42;;;;;;;10.68;5.70;;;;;;;22.53;71.23;99043.88;4984165;28;20034;-61
2021/08/13 05:33:07;;;;;;;10.75;5.35;;;;;;;;;;4974124;28;20389;-61
2021/08/13 05:35:36;;;;;;;9.70;5.03;;;;;;;22.42;70.66;99046.16;4975359;28;20033;-61
2021/08/13 05:38:02;;;;;;;9.65;5.05;;;;;;;22.28;70.15;99012.81;4980362;28;20045;-61
2021/08/13 05:40:28;;;;;;;9.93;5.20;;;;;;;22.52;69.65;99056.28;4978621;28;20038;-60
2021/08/13 05:42:55;;;;;;;8.20;4.85;;;;;;;22.56;69.88;99067.28;4975375;28;20038;-61
2021/08/13 05:45:21;;;;;;;10.00;5.13;;;;;;;22.56;69.58;99065.47;4978806;28;20537;-61
2021/08/13 05:47:46;;;;;;;9.23;5.03;;;;;;;22.62;68.95;99075.22;4972645;28;20027;-61
2021/08/13 05:50:15;;;;;;;8.52;5.05;;;;;;;22.64;67.38;99072.34;4967866;28;20033;-62
2021/08/13 05:52:40;;;;;;;7.68;4.72;;;;;;;22.83;66.78;99087.34;4974236;28;20050;-61
2021/08/13 05:55:07;;;;;;;7.70;4.65;;;;;;;22.83;65.66;99082.03;4977182;28;20363;-61
2021/08/13 05:57:32;;;;;;;7.68;4.57;;;;;;;22.89;66.05;99088.31;4974023;28;20066;-61
2021/08/13 05:59:57;;;;;;;7.97;4.47;;;;;;;22.82;67.09;99091.00;4979896;28;20109;-63
2021/08/13 06:02:23;;;;;;;8.27;5.03;;;;;;;22.78;67.72;99100.41;4978213;28;20073;-61
2021/08/13 06:04:48;;;;;;;7.97;4.88;;;;;;;22.72;68.95;99098.59;4975390;28;20081;-62
2021/08/13 06:07:13;;;;;;;9.73;5.10;;;;;;;22.65;69.35;99103.13;4978378;28;20037;-61
2021/08/13 06:09:39;;;;;;;9.85;4.78;;;;;;;22.63;70.39;99097.22;4959909;28;20071;-62
2021/08/13 06:12:04;;;;;;;7.78;5.05;;;;;;;22.53;70.65;99081.78;4976239;28;20119;-61
2021/08/13 06:14:32;;;;;;;8.60;5.00;;;;;;;22.52;69.98;99077.50;4975006;28;20556;-61
2021/08/13 06:16:59;;;;;;;7.60;5.00;;;;;;;22.56;68.81;99086.66;4982595;28;20034;-61
2021/08/13 06:19:25;;;;;;;6.65;5.00;;;;;;;22.62;68.11;99085.00;4977405;28;20033;-62
2021/08/13 06:21:50;;;;;;;8.55;5.10;;;;;;;22.69;67.47;99082.31;4973894;28;20038;-61
2021/08/13 06:24:16;;;;;;;9.77;4.80;;;;;;;22.71;66.51;99083.72;4975771;28;20022;-61
2021/08/13 06:26:41;;;;;;;10.85;4.65;;;;;;;22.45;66.42;99044.91;4978778;28;20515;-61
2021/08/13 06:29:07;;;;;;;8.98;4.60;;;;;;;22.78;65.93;99067.78;4978149;28;20030;-62
2021/08/13 06:31:32;;;;;;;8.65;4.50;;;;;;;22.70;65.90;99063.53;4982260;28;20109;-61
2021/08/13 06:33:58;;;;;;;9.43;5.22;;;;;;;22.67;65.59;99041.94;4977779;28;20388;-61
2021/08/13 06:36:23;;;;;;;9.90;5.10;;;;;;;22.87;65.73;99077.09;4976201;28;20125;-61
2021/08/13 06:38:48;;;;;;;14.48;5.38;;;;;;;22.97;64.86;99074.00;4977016;28;20400;-62
2021/08/13 06:41:14;;;;;;;13.10;5.05;;;;;;;22.92;65.14;99073.81;4974709;28;20125;-62
2021/08/13 06:43:39;;;;;;;8.48;4.82;;;;;;;22.95;66.71;99091.97;4976609;28;20685;-62
2021/08/13 06:46:05;;;;;;;7.78;4.63;;;;;;;22.81;67.32;99083.25;4974701;28;20038;-62
2021/08/13 06:48:30;;;;;;;8.13;4.75;;;;;;;22.79;67.38;99082.66;4975470;28;20054;-61
2021/08/13 06:50:56;;;;;;;7.85;4.93;;;;;;;22.81;67.91;99086.72;4976744;28;20382;-62
2021/08/13 06:53:21;;;;;;;8.93;4.80;;;;;;;22.80;68.56;99092.25;4976147;28;20094;-62
2021/08/13 06:55:47;;;;;;;11.25;5.18;;;;;;;22.77;68.68;99080.22;4970273;28;20061;-63
2021/08/13 06:58:12;;;;;;;8.45;5.18;;;;;;;22.66;68.22;99075.59;4969715;28;20320;-62
2021/08/13 07:00:37;;;;;;;7.25;4.60;;;;;;;22.66;68.78;99088.84;4969679;28;20474;-62
2021/08/13 07:03:04;;;;;;;9.25;5.55;;;;;;;22.69;69.24;99080.47;4971334;28;20500;-62
2021/08/13 07:05:29;;;;;;;8.40;5.03;;;;;;;22.72;68.99;99093.28;4973877;28;20030;-62
2021/08/13 07:07:55;;;;;;;9.43;5.30;;;;;;;22.88;68.90;99093.84;4978705;28;20656;-62
2021/08/13 07:10:20;;;;;;;8.52;4.93;;;;;;;22.86;68.38;99099.34;4977655;28;20061;-62
2021/08/13 07:12:45;;;;;;;9.60;4.78;;;;;;;22.90;67.54;99097.09;4980760;28;20560;-61
2021/08/13 07:15:11;;;;;;;7.82;5.10;;;;;;;22.95;68.87;99092.78;4984626;28;20069;-62
2021/08/13 07:17:37;;;;;;;11.68;5.00;;;;;;;22.81;66.17;99046.16;4983122;28;20621;-61
2021/08/13 07:20:04;;;;;;;8.45;4.63;;;;;;;22.93;66.09;99056.91;4977815;28;20370;-62
2021/08/13 07:22:32;;;;;;;8.27;4.97;;;;;;;23.13;66.32;99091.28;4985508;28;20038;-62
2021/08/13 07:24:58;;;;;;;9.75;5.18;;;;;;;23.18;65.78;99091.41;4981617;28;20104;-61
2021/08/13 07:27:23;;;;;;;7.38;4.88;;;;;;;23.31;64.57;99095.81;4981042;28;20041;-62
2021/08/13 07:29:49;;;;;;;9.35;5.43;;;;;;;23.39;64.02;99096.34;4981188;28;20030;-63
2021/08/13 07:32:14;;;;;;;9.75;5.25;;;;;;;23.40;63.50;99105.13;4986155;28;20034;-62
2021/08/13 07:34:40;;;;;;;8.75;6.05;;;;;;;23.38;63.43;99105.38;4984804;28;20042;-62
2021/08/13 07:37:05;;;;;;;9.65;6.35;;;;;;;23.45;62.20;99113.25;4976878;28;20030;-62
2021/08/13 07:39:30;;;;;;;12.77;6.70;;;;;;;23.46;62.61;99112.25;4980451;28;20026;-62
2021/08/13 07:41:57;;;;;;;9.38;5.20;;;;;;;23.49;61.92;99114.47;4979010;28;20461;-63
2021/08/13 07:44:22;;;;;;;7.65;5.07;;;;;;;23.42;62.46;99098.59;4982359;28;20116;-62
2021/08/13 07:46:48;;;;;;;7.38;5.22;;;;;;;23.40;63.86;99081.25;4981689;28;20138;-62
2021/08/13 07:49:13;;;;;;;7.20;4.90;;;;;;;23.58;62.92;99121.13;4981557;28;20839;-62
2021/08/13 07:51:39;;;;;;;8.88;5.38;;;;;;;23.47;64.24;99124.47;4979271;28;20377;-62
2021/08/13 07:54:05;;;;;;;10.93;5.15;;;;;;;23.48;63.86;99131.41;4981046;28;20153;-61
2021/08/13 07:56:31;;;;;;;13.15;4.95;;;;;;;23.43;64.31;99128.59;4985972;28;20053;-62
2021/08/13 07:58:56;;;;;;;9.77;4.93;;;;;;;23.26;65.22;99123.00;4982746;28;20042;-62
2021/08/13 08:01:21;;;;;;;12.25;5.28;;;;;;;23.37;65.48;99118.84;4986726;28;20101;-62
2021/08/13 08:03:47;;;;;;;11.23;5.20;;;;;;;23.23;64.98;99095.03;4964605;28;20051;-61
2021/08/13 08:06:12;;;;;;;8.88;5.05;;;;;;;23.41;65.39;99125.34;4984101;28;20121;-62
2021/08/13 08:08:37;;;;;;;9.25;4.80;;;;;;;23.28;64.58;99089.09;4985789;28;20061;-62
2021/08/13 08:11:03;;;;;;;13.07;4.97;;;;;;;23.55;64.36;99129.50;4984482;28;20073;-62
2021/08/13 08:13:28;;;;;;;15.48;5.03;;;;;;;23.61;63.16;99135.78;4982299;28;20038;-62
2021/08/13 08:15:54;;;;;;;9.63;5.00;;;;;;;23.67;63.29;99131.47;4980533;28;20034;-62
2021/08/13 08:18:22;;;;;;;11.95;5.22;;;;;;;23.79;62.81;99135.03;4975756;28;20733;-63
2021/08/13 08:20:48;;;;;;;11.83;4.87;;;;;;;24.49;60.77;99137.41;4974353;28;20030;-62
2021/08/13 08:23:13;;;;;;;8.90;5.03;;;;;;;25.16;58.57;99106.50;4977701;28;20502;-62
2021/08/13 08:25:39;;;;;;;8.90;4.50;;;;;;;26.15;55.23;99137.88;4969570;28;20053;-62
2021/08/13 08:28:05;;;;;;;10.32;5.22;;;;;;;26.73;54.39;99133.47;4972892;28;20125;-62
2021/08/13 08:30:30;;;;;;;7.38;4.68;;;;;;;27.24;53.43;99145.88;4974303;28;20043;-61
2021/08/13 08:32:56;;;;;;;9.20;4.68;;;;;;;27.84;50.61;99140.16;4971579;28;20125;-60
2021/08/13 08:35:22;;;;;;;9.13;4.53;;;;;;;28.04;50.22;99142.34;4973122;28;20039;-61
2021/08/13 08:37:50;;;;;;;9.32;4.45;;;;;;;28.54;49.41;99144.88;4974247;28;20034;-62
2021/08/13 08:40:23;;;;;;;8.48;4.40;;;;;;;29.10;47.19;99146.56;4974220;28;20375;-61
2021/08/13 08:42:48;;;;;;;9.23;4.50;;;;;;;29.33;46.14;99115.97;4990101;28;20110;-62
2021/08/13 08:45:14;;;;;;;9.98;4.35;;;;;;;29.55;45.76;99158.75;4983300;28;20038;-61
2021/08/13 08:47:40;;;;;;;7.45;4.22;;;;;;;29.62;44.97;99129.88;4963166;28;20019;-62
2021/08/13 08:50:06;;;;;;;9.13;4.38;;;;;;;30.26;44.25;99150.38;4974850;28;20039;-63
2021/08/13 08:52:31;;;;;;;7.63;4.57;;;;;;;30.05;44.16;99149.47;4988413;28;20370;-60
2021/08/13 08:54:57;;;;;;;7.75;4.28;;;;;;;30.57;43.60;99160.47;4974619;28;20057;-61
2021/08/13 08:57:28;;;;;;;9.25;4.90;;;;;;;30.43;43.33;99154.75;4969329;28;20034;-60
2021/08/13 08:59:56;;;;;;;9.48;5.13;;;;;;;30.59;43.02;99161.81;4981093;28;20061;-62
2021/08/13 09:02:21;;;;;;;9.45;4.60;;;;;;;30.53;42.62;99165.53;4969687;28;20026;-61
2021/08/13 09:04:46;;;;;;;9.90;3.90;;;;;;;30.93;41.26;99149.88;4970168;28;20121;-61
2021/08/13 09:07:12;;;;;;;7.53;3.97;;;;;;;30.91;40.84;99151.97;4965268;28;20030;-61
2021/08/13 09:09:37;;;;;;;9.30;4.45;;;;;;;31.06;40.58;99159.28;4972473;28;20034;-61
2021/08/13 09:12:03;;;;;;;7.35;3.85;;;;;;;30.74;41.53;99170.97;4970344;28;20527;-59
2021/08/13 09:14:40;;;;;;;6.75;3.95;;;;;;;30.46;43.53;99173.03;4971542;28;20153;-61
2021/08/13 09:17:06;;;;;;;8.55;4.40;;;;;;;29.84;44.42;99171.84;4983464;28;20030;-62
2021/08/13 09:19:46;;;;;;;9.40;4.20;;;;;;;29.42;45.51;99167.22;4982824;28;20139;-62
2021/08/13 09:22:19;;;;;;;8.80;4.47;;;;;;;29.30;45.95;99176.22;4968763;28;20042;-62
2021/08/13 09:24:48;;;;;;;10.27;4.70;;;;;;;28.58;46.69;99131.81;4986037;28;20760;-61
2021/08/13 09:27:22;;;;;;;9.52;4.38;;;;;;;28.19;48.53;99172.75;4973514;28;20027;-61
2021/08/13 09:30:14;;;;;;;10.65;4.47;;;;;;;27.53;49.52;99196.59;4977820;28;20037;-61
2021/08/13 09:33:00;;;;;;;8.80;4.70;;;;;;;27.29;50.85;99192.41;4969355;28;20035;-61
2021/08/13 09:35:37;;;;;;;9.05;4.75;;;;;;;27.17;53.57;99195.13;4975879;28;20027;-62
2021/08/13 09:38:09;;;;;;;13.70;5.53;;;;;;;27.20;54.91;99187.44;4979881;28;20026;-63
2021/08/13 09:40:37;;;;;;;12.73;4.63;;;;;;;27.16;52.20;99188.97;4977144;28;20031;-63
2021/08/13 09:43:03;;;;;;;9.45;4.72;;;;;;;27.07;51.67;99190.41;4977655;28;20406;-61
2021/08/13 09:45:29;;;;;;;8.85;4.38;;;;;;;26.80;53.85;99187.50;4972291;28;20038;-61
2021/08/13 09:47:54;;;;;;;7.38;4.43;;;;;;;26.80;51.39;99182.16;4964683;28;20579;-61
2021/08/13 09:50:35;;;;;;;9.45;4.60;;;;;;;26.87;53.34;99182.00;4963953;28;20125;-62
2021/08/13 09:53:12;;;;;;;12.88;4.72;;;;;;;26.92;54.78;99179.44;4963453;28;20077;-61
2021/08/13 09:55:39;;;;;;;8.98;4.38;;;;;;;27.08;51.77;99178.69;4987739;28;20467;-62
2021/08/13 09:58:05;;;;;;;11.20;5.28;;;;;;;27.12;53.87;99176.34;4971688;28;20957;-61
2021/08/13 10:00:41;;;;;;;8.60;4.57;;;;;;;27.03;52.02;99143.88;4970419;28;20030;-61
2021/08/13 10:03:07;;;;;;;10.48;4.85;;;;;;;27.35;52.53;99162.91;4984155;28;20410;-61
2021/08/13 10:05:33;;;;;;;8.43;4.75;;;;;;;27.50;52.69;99158.88;4970666;28;20403;-63
2021/08/13 10:08:04;;;;;;;8.38;4.20;;;;;;;27.50;49.85;99140.19;4962465;28;20034;-61
2021/08/13 10:10:31;;;;;;;7.45;4.78;;;;;;;27.71;49.70;99151.97;4971797;28;20022;-61
2021/08/13 10:13:00;;;;;;;8.30;4.38;;;;;;;27.80;47.85;99151.34;4973493;28;20022;-61
2021/08/13 10:15:27;;;;;;;8.85;4.70;;;;;;;27.98;49.53;99154.81;4970404;28;20400;-61
2021/08/13 10:17:54;;;;;;;8.95;4.90;;;;;;;27.64;49.41;99119.28;4973498;28;20460;-62
2021/08/13 10:20:19;;;;;;;7.85;4.10;;;;;;;27.76;50.43;99139.53;4975768;28;20030;-61
2021/08/13 10:22:44;;;;;;;8.90;4.50;;;;;;;27.88;51.10;99146.66;4970102;28;20109;-61
2021/08/13 10:25:10;;;;;;;7.70;4.45;;;;;;;27.69;51.62;99106.00;4972032;28;20035;-61
2021/08/13 10:27:36;;;;;;;6.97;4.50;;;;;;;27.92;49.83;99143.25;4969717;28;20448;-61
2021/08/13 10:30:02;;;;;;;9.10;4.32;;;;;;;27.97;50.05;99142.53;4969881;28;20034;-61
2021/08/13 10:32:28;;;;;;;10.50;4.85;;;;;;;27.95;51.24;99134.75;4973714;28;20030;-60
2021/08/13 10:34:54;;;;;;;10.65;4.57;;;;;;;27.92;50.06;99140.56;4962241;28;20038;-60
2021/08/13 10:37:22;;;;;;;9.43;4.65;;;;;;;27.91;55.24;99147.00;4966575;28;20023;-60
2021/08/13 10:39:48;;;;;;;8.70;4.82;;;;;;;27.89;55.35;99127.69;4984160;28;20747;-61
2021/08/13 10:42:22;;;;;;;7.00;4.50;;;;;;;27.79;52.10;99125.66;4963109;28;20039;-61
2021/08/13 10:44:54;;;;;;;9.15;5.05;;;;;;;27.89;52.75;99137.56;4970155;28;20391;-60
2021/08/13 10:47:31;;;;;;;8.20;4.53;;;;;;;27.97;54.05;99137.19;4964399;28;20114;-61
2021/08/13 10:49:57;;;;;;;9.60;5.00;;;;;;;28.08;54.35;99136.25;4993951;28;20030;-61
2021/08/13 10:52:37;;;;;;;7.25;4.68;;;;;;;28.22;52.91;99133.22;4979578;28;20034;-61
2021/08/13 10:55:04;;;;;;;9.00;4.50;;;;;;;28.25;50.12;99125.50;4983568;28;20034;-61
2021/08/13 10:57:47;;;;;;;8.27;4.82;;;;;;;28.05;51.24;99131.41;4974400;28;20446;-60
2021/08/13 11:00:13;;;;;;;10.40;5.18;;;;;;;28.05;52.36;99120.72;4972768;28;20031;-61
2021/08/13 11:02:39;;;;;;;10.68;5.20;;;;;;;28.05;53.62;99096.66;4970556;28;20034;-61
2021/08/13 11:05:05;;;;;;;7.45;4.95;;;;;;;28.42;52.45;99116.63;4970698;28;20129;-61
2021/08/13 11:07:57;;;;;;;10.02;5.03;;;;;;;28.71;50.78;99117.25;4973641;28;20030;-61
2021/08/13 11:10:37;;;;;;;9.30;5.40;;;;;;;28.55;50.14;99086.88;4971525;28;20038;-61
2021/08/13 11:13:10;;;;;;;8.82;5.35;;;;;;;28.53;50.00;99083.63;4971901;28;20568;-61
2021/08/13 11:15:35;;;;;;;9.95;4.80;;;;;;;28.75;49.95;99111.16;4971905;28;20045;-60
2021/08/13 11:18:01;;;;;;;8.80;5.65;;;;;;;28.66;50.15;99104.66;4983939;28;20027;-61
2021/08/13 11:20:43;;;;;;;7.10;5.30;;;;;;;28.61;50.13;99101.09;4970578;28;20046;-62
2021/08/13 11:23:08;;;;;;;11.50;5.47;;;;;;;28.65;49.70;99096.88;4989293;28;20561;-61
2021/08/13 11:25:54;;;;;;;11.07;5.65;;;;;;;28.75;50.41;99097.78;4969344;28;20165;-61
2021/08/13 11:28:28;;;;;;;8.05;5.32;;;;;;;28.86;50.70;99097.88;4965684;28;20077;-61
2021/08/13 11:30:56;;;;;;;10.88;5.40;;;;;;;28.90;49.83;99093.66;4969367;28;20070;-61
2021/08/13 11:33:33;;;;;;;8.43;5.10;;;;;;;28.94;50.16;99097.41;4970069;28;20038;-61